Terminal Aerodrome Forecast
Issued by NWS

Home | Current Version | Previous Version | Text Only | Print | Product List | Glossary On
Versions: 1 2 3 4 5 6 7 8 9 10 11 12 13 14 15 16 17 18 19
000
FTUS41 KRNK 241720
TAFLWB
TAF
KLWB 241720Z 2418/2518 25005KT P6SM FEW050 SCT250
     FM250100 00000KT P6SM SCT050
     FM250900 00000KT 1/4SM FG OVC001
     FM251500 24003KT P6SM SCT120=

USA.gov is the U.S. government's official web portal to all federal, state and local government web resources and services.